sensor_id;sensor_type;location;lat;lon;timestamp;P1;durP1;ratioP1;P2;durP2;ratioP2
73397;SDS011;63606;52.328;20.964;2022-10-16T00:01:21;18.42;;;10.30;;
73397;SDS011;63606;52.328;20.964;2022-10-16T00:03:48;18.00;;;11.05;;
73397;SDS011;63606;52.328;20.964;2022-10-16T00:06:15;18.27;;;10.82;;
73397;SDS011;63606;52.328;20.964;2022-10-16T00:08:41;19.88;;;10.52;;
73397;SDS011;63606;52.328;20.964;2022-10-16T00:11:09;19.50;;;10.50;;
73397;SDS011;63606;52.328;20.964;2022-10-16T00:13:43;18.77;;;10.88;;
73397;SDS011;63606;52.328;20.964;2022-10-16T00:16:10;17.52;;;9.88;;
73397;SDS011;63606;52.328;20.964;2022-10-16T00:18:36;17.60;;;9.93;;
73397;SDS011;63606;52.328;20.964;2022-10-16T00:21:03;17.17;;;10.48;;
73397;SDS011;63606;52.328;20.964;2022-10-16T00:23:31;16.73;;;10.38;;
73397;SDS011;63606;52.328;20.964;2022-10-16T00:25:57;17.05;;;9.52;;
73397;SDS011;63606;52.328;20.964;2022-10-16T00:28:24;16.75;;;9.73;;
73397;SDS011;63606;52.328;20.964;2022-10-16T00:30:50;17.00;;;10.02;;
73397;SDS011;63606;52.328;20.964;2022-10-16T00:33:16;16.95;;;9.02;;
73397;SDS011;63606;52.328;20.964;2022-10-16T00:35:42;16.20;;;9.18;;
73397;SDS011;63606;52.328;20.964;2022-10-16T00:38:08;17.35;;;9.18;;
73397;SDS011;63606;52.328;20.964;2022-10-16T00:40:34;20.15;;;10.05;;
73397;SDS011;63606;52.328;20.964;2022-10-16T00:43:00;16.35;;;9.38;;
73397;SDS011;63606;52.328;20.964;2022-10-16T00:45:25;13.10;;;8.65;;
73397;SDS011;63606;52.328;20.964;2022-10-16T00:47:51;13.13;;;8.60;;
73397;SDS011;63606;52.328;20.964;2022-10-16T00:50:29;14.80;;;8.30;;
73397;SDS011;63606;52.328;20.964;2022-10-16T00:52:57;17.25;;;8.80;;
73397;SDS011;63606;52.328;20.964;2022-10-16T00:55:25;16.27;;;9.68;;
73397;SDS011;63606;52.328;20.964;2022-10-16T00:57:53;16.70;;;9.07;;
73397;SDS011;63606;52.328;20.964;2022-10-16T01:00:23;16.23;;;8.45;;
73397;SDS011;63606;52.328;20.964;2022-10-16T01:02:57;17.15;;;8.45;;
73397;SDS011;63606;52.328;20.964;2022-10-16T01:05:44;16.50;;;9.43;;
73397;SDS011;63606;52.328;20.964;2022-10-16T01:11:17;17.15;;;8.80;;
73397;SDS011;63606;52.328;20.964;2022-10-16T01:13:48;24.70;;;9.27;;
73397;SDS011;63606;52.328;20.964;2022-10-16T01:16:52;18.42;;;9.68;;
73397;SDS011;63606;52.328;20.964;2022-10-16T01:19:26;18.23;;;9.82;;
73397;SDS011;63606;52.328;20.964;2022-10-16T01:22:04;15.50;;;8.80;;
73397;SDS011;63606;52.328;20.964;2022-10-16T01:24:36;18.13;;;9.95;;
73397;SDS011;63606;52.328;20.964;2022-10-16T01:27:12;17.40;;;9.80;;
73397;SDS011;63606;52.328;20.964;2022-10-16T01:32:23;18.63;;;9.38;;
73397;SDS011;63606;52.328;20.964;2022-10-16T01:35:02;17.27;;;10.30;;
73397;SDS011;63606;52.328;20.964;2022-10-16T01:37:45;18.15;;;9.73;;
73397;SDS011;63606;52.328;20.964;2022-10-16T01:40:16;17.75;;;10.75;;
73397;SDS011;63606;52.328;20.964;2022-10-16T01:43:06;18.70;;;9.55;;
73397;SDS011;63606;52.328;20.964;2022-10-16T01:45:33;19.35;;;9.82;;
73397;SDS011;63606;52.328;20.964;2022-10-16T01:48:00;18.30;;;10.35;;
73397;SDS011;63606;52.328;20.964;2022-10-16T01:50:30;18.20;;;9.55;;
73397;SDS011;63606;52.328;20.964;2022-10-16T01:52:59;16.73;;;9.68;;
73397;SDS011;63606;52.328;20.964;2022-10-16T01:55:31;21.52;;;10.93;;
73397;SDS011;63606;52.328;20.964;2022-10-16T02:02:54;17.50;;;9.45;;
73397;SDS011;63606;52.328;20.964;2022-10-16T02:08:07;20.15;;;10.18;;
73397;SDS011;63606;52.328;20.964;2022-10-16T02:10:34;19.40;;;10.95;;
73397;SDS011;63606;52.328;20.964;2022-10-16T02:15:39;19.52;;;9.88;;
73397;SDS011;63606;52.328;20.964;2022-10-16T02:18:05;18.67;;;10.50;;
73397;SDS011;63606;52.328;20.964;2022-10-16T02:20:33;17.85;;;9.80;;
73397;SDS011;63606;52.328;20.964;2022-10-16T02:23:05;17.42;;;9.52;;
73397;SDS011;63606;52.328;20.964;2022-10-16T02:25:37;19.27;;;10.05;;
73397;SDS011;63606;52.328;20.964;2022-10-16T02:28:09;20.27;;;10.57;;
73397;SDS011;63606;52.328;20.964;2022-10-16T02:30:43;20.60;;;10.57;;
73397;SDS011;63606;52.328;20.964;2022-10-16T02:33:13;19.02;;;11.00;;
73397;SDS011;63606;52.328;20.964;2022-10-16T02:35:41;19.13;;;10.25;;
73397;SDS011;63606;52.328;20.964;2022-10-16T02:38:10;20.40;;;10.85;;
73397;SDS011;63606;52.328;20.964;2022-10-16T02:40:37;17.02;;;10.00;;
73397;SDS011;63606;52.328;20.964;2022-10-16T02:43:04;17.25;;;9.93;;
73397;SDS011;63606;52.328;20.964;2022-10-16T02:45:30;23.73;;;10.52;;
73397;SDS011;63606;52.328;20.964;2022-10-16T02:47:56;18.35;;;10.73;;
73397;SDS011;63606;52.328;20.964;2022-10-16T02:50:21;17.63;;;10.02;;
73397;SDS011;63606;52.328;20.964;2022-10-16T02:52:47;19.27;;;10.65;;
73397;SDS011;63606;52.328;20.964;2022-10-16T02:55:13;21.27;;;10.88;;
73397;SDS011;63606;52.328;20.964;2022-10-16T02:57:39;18.55;;;11.20;;
73397;SDS011;63606;52.328;20.964;2022-10-16T03:00:06;18.38;;;10.82;;
73397;SDS011;63606;52.328;20.964;2022-10-16T03:02:33;20.25;;;10.48;;
73397;SDS011;63606;52.328;20.964;2022-10-16T03:04:58;23.75;;;11.38;;
73397;SDS011;63606;52.328;20.964;2022-10-16T03:07:24;18.85;;;10.80;;
73397;SDS011;63606;52.328;20.964;2022-10-16T03:09:49;22.67;;;10.73;;
73397;SDS011;63606;52.328;20.964;2022-10-16T03:12:15;18.77;;;11.07;;
73397;SDS011;63606;52.328;20.964;2022-10-16T03:14:40;19.92;;;10.65;;
73397;SDS011;63606;52.328;20.964;2022-10-16T03:17:06;18.08;;;10.00;;
73397;SDS011;63606;52.328;20.964;2022-10-16T03:19:32;19.90;;;11.18;;
73397;SDS011;63606;52.328;20.964;2022-10-16T03:21:57;22.38;;;10.68;;
73397;SDS011;63606;52.328;20.964;2022-10-16T03:24:22;19.33;;;10.80;;
73397;SDS011;63606;52.328;20.964;2022-10-16T03:26:48;20.10;;;11.90;;
73397;SDS011;63606;52.328;20.964;2022-10-16T03:29:13;19.80;;;10.85;;
73397;SDS011;63606;52.328;20.964;2022-10-16T03:31:39;20.17;;;11.43;;
73397;SDS011;63606;52.328;20.964;2022-10-16T03:34:05;19.75;;;11.05;;
73397;SDS011;63606;52.328;20.964;2022-10-16T03:36:30;18.30;;;10.90;;
73397;SDS011;63606;52.328;20.964;2022-10-16T03:38:56;19.33;;;10.85;;
73397;SDS011;63606;52.328;20.964;2022-10-16T03:41:21;21.45;;;11.20;;
73397;SDS011;63606;52.328;20.964;2022-10-16T03:43:47;20.98;;;11.23;;
73397;SDS011;63606;52.328;20.964;2022-10-16T03:46:12;20.73;;;11.25;;
73397;SDS011;63606;52.328;20.964;2022-10-16T03:48:38;22.58;;;12.20;;
73397;SDS011;63606;52.328;20.964;2022-10-16T03:51:05;23.50;;;11.68;;
73397;SDS011;63606;52.328;20.964;2022-10-16T03:53:30;19.73;;;12.15;;
73397;SDS011;63606;52.328;20.964;2022-10-16T03:55:56;24.75;;;12.35;;
73397;SDS011;63606;52.328;20.964;2022-10-16T03:58:22;21.85;;;11.70;;
73397;SDS011;63606;52.328;20.964;2022-10-16T04:00:47;20.52;;;11.80;;
73397;SDS011;63606;52.328;20.964;2022-10-16T04:03:13;21.83;;;12.80;;
73397;SDS011;63606;52.328;20.964;2022-10-16T04:05:39;21.98;;;12.02;;
73397;SDS011;63606;52.328;20.964;2022-10-16T04:08:05;22.13;;;12.77;;
73397;SDS011;63606;52.328;20.964;2022-10-16T04:10:31;21.63;;;11.73;;
73397;SDS011;63606;52.328;20.964;2022-10-16T04:12:56;18.98;;;11.65;;
73397;SDS011;63606;52.328;20.964;2022-10-16T04:15:22;20.02;;;11.60;;
73397;SDS011;63606;52.328;20.964;2022-10-16T04:17:48;20.60;;;11.45;;
73397;SDS011;63606;52.328;20.964;2022-10-16T04:20:14;22.20;;;12.23;;
73397;SDS011;63606;52.328;20.964;2022-10-16T04:22:39;19.30;;;11.38;;
73397;SDS011;63606;52.328;20.964;2022-10-16T04:25:05;20.10;;;11.48;;
73397;SDS011;63606;52.328;20.964;2022-10-16T04:27:31;19.75;;;10.93;;
73397;SDS011;63606;52.328;20.964;2022-10-16T04:29:59;20.65;;;11.15;;
73397;SDS011;63606;52.328;20.964;2022-10-16T04:32:26;19.42;;;11.50;;
73397;SDS011;63606;52.328;20.964;2022-10-16T04:34:51;21.15;;;11.85;;
73397;SDS011;63606;52.328;20.964;2022-10-16T04:37:17;21.52;;;10.77;;
73397;SDS011;63606;52.328;20.964;2022-10-16T04:39:42;23.20;;;11.75;;
73397;SDS011;63606;52.328;20.964;2022-10-16T04:42:08;20.80;;;12.15;;
73397;SDS011;63606;52.328;20.964;2022-10-16T04:44:34;22.42;;;10.75;;
73397;SDS011;63606;52.328;20.964;2022-10-16T04:46:59;23.83;;;12.32;;
73397;SDS011;63606;52.328;20.964;2022-10-16T04:49:25;19.50;;;12.00;;
73397;SDS011;63606;52.328;20.964;2022-10-16T04:51:50;18.83;;;10.82;;
73397;SDS011;63606;52.328;20.964;2022-10-16T04:54:16;19.17;;;11.80;;
73397;SDS011;63606;52.328;20.964;2022-10-16T04:56:41;24.17;;;11.70;;
73397;SDS011;63606;52.328;20.964;2022-10-16T04:59:15;20.27;;;11.25;;
73397;SDS011;63606;52.328;20.964;2022-10-16T05:01:42;18.60;;;11.10;;
73397;SDS011;63606;52.328;20.964;2022-10-16T05:04:08;25.52;;;11.82;;
73397;SDS011;63606;52.328;20.964;2022-10-16T05:06:34;23.05;;;11.80;;
73397;SDS011;63606;52.328;20.964;2022-10-16T05:08:59;21.00;;;11.73;;
73397;SDS011;63606;52.328;20.964;2022-10-16T05:11:25;19.77;;;12.05;;
73397;SDS011;63606;52.328;20.964;2022-10-16T05:13:50;25.75;;;12.32;;
73397;SDS011;63606;52.328;20.964;2022-10-16T05:16:16;24.90;;;12.13;;
73397;SDS011;63606;52.328;20.964;2022-10-16T05:18:42;21.05;;;11.70;;
73397;SDS011;63606;52.328;20.964;2022-10-16T05:21:08;19.42;;;12.02;;
73397;SDS011;63606;52.328;20.964;2022-10-16T05:23:33;21.27;;;12.00;;
73397;SDS011;63606;52.328;20.964;2022-10-16T05:25:59;20.13;;;11.40;;
73397;SDS011;63606;52.328;20.964;2022-10-16T05:28:26;20.15;;;11.93;;
73397;SDS011;63606;52.328;20.964;2022-10-16T05:30:55;22.92;;;12.68;;
73397;SDS011;63606;52.328;20.964;2022-10-16T05:33:22;22.45;;;12.18;;
73397;SDS011;63606;52.328;20.964;2022-10-16T05:35:49;19.60;;;11.55;;
73397;SDS011;63606;52.328;20.964;2022-10-16T05:38:16;20.38;;;11.68;;
73397;SDS011;63606;52.328;20.964;2022-10-16T05:40:42;24.90;;;12.35;;
73397;SDS011;63606;52.328;20.964;2022-10-16T05:43:08;20.42;;;10.95;;
73397;SDS011;63606;52.328;20.964;2022-10-16T05:45:34;20.45;;;11.98;;
73397;SDS011;63606;52.328;20.964;2022-10-16T05:48:00;21.80;;;12.02;;
73397;SDS011;63606;52.328;20.964;2022-10-16T05:50:26;22.02;;;12.60;;
73397;SDS011;63606;52.328;20.964;2022-10-16T05:52:51;20.20;;;11.55;;
73397;SDS011;63606;52.328;20.964;2022-10-16T05:55:17;18.83;;;11.85;;
73397;SDS011;63606;52.328;20.964;2022-10-16T05:57:43;20.75;;;11.20;;
73397;SDS011;63606;52.328;20.964;2022-10-16T06:00:09;21.27;;;11.23;;
73397;SDS011;63606;52.328;20.964;2022-10-16T06:02:35;22.40;;;12.23;;
73397;SDS011;63606;52.328;20.964;2022-10-16T06:05:01;20.95;;;12.50;;
73397;SDS011;63606;52.328;20.964;2022-10-16T06:07:26;18.33;;;11.73;;
73397;SDS011;63606;52.328;20.964;2022-10-16T06:09:52;17.35;;;9.73;;
73397;SDS011;63606;52.328;20.964;2022-10-16T06:12:18;21.77;;;11.82;;
73397;SDS011;63606;52.328;20.964;2022-10-16T06:14:44;20.88;;;12.00;;
73397;SDS011;63606;52.328;20.964;2022-10-16T06:17:12;19.70;;;11.13;;
73397;SDS011;63606;52.328;20.964;2022-10-16T06:19:38;18.08;;;10.82;;
73397;SDS011;63606;52.328;20.964;2022-10-16T06:22:04;20.75;;;11.20;;
73397;SDS011;63606;52.328;20.964;2022-10-16T06:24:29;19.80;;;11.15;;
73397;SDS011;63606;52.328;20.964;2022-10-16T06:26:55;20.08;;;11.40;;
73397;SDS011;63606;52.328;20.964;2022-10-16T06:29:20;19.73;;;11.52;;
73397;SDS011;63606;52.328;20.964;2022-10-16T06:31:46;22.42;;;11.77;;
73397;SDS011;63606;52.328;20.964;2022-10-16T06:34:11;18.30;;;11.18;;
73397;SDS011;63606;52.328;20.964;2022-10-16T06:36:38;17.50;;;11.10;;
73397;SDS011;63606;52.328;20.964;2022-10-16T06:39:04;18.85;;;10.95;;
73397;SDS011;63606;52.328;20.964;2022-10-16T06:41:32;21.00;;;11.70;;
73397;SDS011;63606;52.328;20.964;2022-10-16T06:43:58;17.85;;;11.38;;
73397;SDS011;63606;52.328;20.964;2022-10-16T06:46:25;19.08;;;10.80;;
73397;SDS011;63606;52.328;20.964;2022-10-16T06:48:51;22.23;;;11.10;;
73397;SDS011;63606;52.328;20.964;2022-10-16T06:51:18;20.60;;;10.55;;
73397;SDS011;63606;52.328;20.964;2022-10-16T06:53:49;19.63;;;11.13;;
73397;SDS011;63606;52.328;20.964;2022-10-16T06:56:20;19.00;;;10.73;;
73397;SDS011;63606;52.328;20.964;2022-10-16T06:58:48;17.15;;;10.88;;
73397;SDS011;63606;52.328;20.964;2022-10-16T07:01:15;20.98;;;11.30;;
73397;SDS011;63606;52.328;20.964;2022-10-16T07:03:42;17.65;;;10.05;;
73397;SDS011;63606;52.328;20.964;2022-10-16T07:06:10;17.00;;;10.07;;
73397;SDS011;63606;52.328;20.964;2022-10-16T07:08:38;17.00;;;10.13;;
73397;SDS011;63606;52.328;20.964;2022-10-16T07:11:09;18.55;;;10.48;;
73397;SDS011;63606;52.328;20.964;2022-10-16T07:13:37;18.15;;;10.27;;
73397;SDS011;63606;52.328;20.964;2022-10-16T07:16:08;17.98;;;9.88;;
73397;SDS011;63606;52.328;20.964;2022-10-16T07:18:35;18.05;;;10.35;;
73397;SDS011;63606;52.328;20.964;2022-10-16T07:23:44;17.05;;;9.77;;
73397;SDS011;63606;52.328;20.964;2022-10-16T07:26:10;16.20;;;10.23;;
73397;SDS011;63606;52.328;20.964;2022-10-16T07:28:36;19.77;;;10.70;;
73397;SDS011;63606;52.328;20.964;2022-10-16T07:31:07;17.25;;;10.65;;
73397;SDS011;63606;52.328;20.964;2022-10-16T07:33:39;18.15;;;9.73;;
73397;SDS011;63606;52.328;20.964;2022-10-16T07:36:07;16.17;;;9.52;;
73397;SDS011;63606;52.328;20.964;2022-10-16T07:38:33;16.38;;;9.75;;
73397;SDS011;63606;52.328;20.964;2022-10-16T07:40:59;15.63;;;10.00;;
73397;SDS011;63606;52.328;20.964;2022-10-16T07:43:26;18.23;;;10.57;;
73397;SDS011;63606;52.328;20.964;2022-10-16T07:45:53;17.15;;;10.48;;
73397;SDS011;63606;52.328;20.964;2022-10-16T07:48:18;16.80;;;9.93;;
73397;SDS011;63606;52.328;20.964;2022-10-16T07:50:44;17.65;;;10.50;;
73397;SDS011;63606;52.328;20.964;2022-10-16T07:53:10;16.80;;;10.25;;
73397;SDS011;63606;52.328;20.964;2022-10-16T07:55:37;16.88;;;10.00;;
73397;SDS011;63606;52.328;20.964;2022-10-16T07:58:03;17.73;;;10.15;;
73397;SDS011;63606;52.328;20.964;2022-10-16T08:00:29;18.48;;;9.75;;
73397;SDS011;63606;52.328;20.964;2022-10-16T08:02:56;17.65;;;10.07;;
73397;SDS011;63606;52.328;20.964;2022-10-16T08:05:25;15.63;;;9.80;;
73397;SDS011;63606;52.328;20.964;2022-10-16T08:07:51;16.52;;;9.70;;
73397;SDS011;63606;52.328;20.964;2022-10-16T08:10:17;20.25;;;10.52;;
73397;SDS011;63606;52.328;20.964;2022-10-16T08:12:44;18.35;;;10.30;;
73397;SDS011;63606;52.328;20.964;2022-10-16T08:15:10;16.15;;;10.23;;
73397;SDS011;63606;52.328;20.964;2022-10-16T08:17:35;17.88;;;9.93;;
73397;SDS011;63606;52.328;20.964;2022-10-16T08:20:01;14.73;;;9.48;;
73397;SDS011;63606;52.328;20.964;2022-10-16T08:22:27;16.38;;;9.68;;
73397;SDS011;63606;52.328;20.964;2022-10-16T08:24:53;16.90;;;10.55;;
73397;SDS011;63606;52.328;20.964;2022-10-16T08:27:18;18.60;;;9.23;;
73397;SDS011;63606;52.328;20.964;2022-10-16T08:29:44;16.58;;;10.07;;
73397;SDS011;63606;52.328;20.964;2022-10-16T08:32:09;18.30;;;10.40;;
73397;SDS011;63606;52.328;20.964;2022-10-16T08:34:35;19.30;;;11.13;;
73397;SDS011;63606;52.328;20.964;2022-10-16T08:37:00;16.63;;;10.00;;
73397;SDS011;63606;52.328;20.964;2022-10-16T08:39:26;17.02;;;9.88;;
73397;SDS011;63606;52.328;20.964;2022-10-16T08:42:04;16.80;;;10.27;;
73397;SDS011;63606;52.328;20.964;2022-10-16T08:44:46;17.70;;;9.88;;
73397;SDS011;63606;52.328;20.964;2022-10-16T08:47:44;14.07;;;9.80;;
73397;SDS011;63606;52.328;20.964;2022-10-16T08:50:35;17.17;;;9.07;;
73397;SDS011;63606;52.328;20.964;2022-10-16T08:53:03;15.68;;;9.15;;
73397;SDS011;63606;52.328;20.964;2022-10-16T08:55:31;14.88;;;9.05;;
73397;SDS011;63606;52.328;20.964;2022-10-16T08:58:07;17.27;;;9.45;;
73397;SDS011;63606;52.328;20.964;2022-10-16T09:00:39;14.43;;;8.57;;
73397;SDS011;63606;52.328;20.964;2022-10-16T09:11:36;15.40;;;8.50;;
73397;SDS011;63606;52.328;20.964;2022-10-16T09:14:25;15.27;;;8.85;;
73397;SDS011;63606;52.328;20.964;2022-10-16T09:17:22;13.52;;;8.25;;
73397;SDS011;63606;52.328;20.964;2022-10-16T09:25:45;14.15;;;8.30;;
73397;SDS011;63606;52.328;20.964;2022-10-16T09:28:12;14.75;;;8.02;;
73397;SDS011;63606;52.328;20.964;2022-10-16T09:30:38;12.43;;;7.85;;
73397;SDS011;63606;52.328;20.964;2022-10-16T09:33:04;12.57;;;8.60;;
73397;SDS011;63606;52.328;20.964;2022-10-16T09:35:44;12.23;;;8.32;;
73397;SDS011;63606;52.328;20.964;2022-10-16T09:41:16;13.60;;;8.80;;
73397;SDS011;63606;52.328;20.964;2022-10-16T09:49:00;12.32;;;7.70;;
73397;SDS011;63606;52.328;20.964;2022-10-16T09:51:36;14.15;;;7.85;;
73397;SDS011;63606;52.328;20.964;2022-10-16T09:56:34;15.07;;;8.15;;
73397;SDS011;63606;52.328;20.964;2022-10-16T09:59:10;14.23;;;8.18;;
73397;SDS011;63606;52.328;20.964;2022-10-16T10:01:38;13.90;;;8.30;;
73397;SDS011;63606;52.328;20.964;2022-10-16T10:04:06;12.73;;;7.95;;
73397;SDS011;63606;52.328;20.964;2022-10-16T10:06:51;12.50;;;7.80;;
73397;SDS011;63606;52.328;20.964;2022-10-16T10:09:20;13.10;;;7.50;;
73397;SDS011;63606;52.328;20.964;2022-10-16T10:11:48;12.30;;;7.93;;
73397;SDS011;63606;52.328;20.964;2022-10-16T10:21:55;15.10;;;9.05;;
73397;SDS011;63606;52.328;20.964;2022-10-16T10:24:20;12.93;;;7.75;;
73397;SDS011;63606;52.328;20.964;2022-10-16T10:30:18;12.57;;;7.43;;
73397;SDS011;63606;52.328;20.964;2022-10-16T10:32:57;14.02;;;7.68;;
73397;SDS011;63606;52.328;20.964;2022-10-16T10:35:39;12.98;;;7.65;;
73397;SDS011;63606;52.328;20.964;2022-10-16T10:46:32;12.15;;;7.22;;
73397;SDS011;63606;52.328;20.964;2022-10-16T10:52:06;11.85;;;7.90;;
73397;SDS011;63606;52.328;20.964;2022-10-16T10:55:00;13.20;;;7.82;;
73397;SDS011;63606;52.328;20.964;2022-10-16T10:57:38;15.48;;;7.60;;
73397;SDS011;63606;52.328;20.964;2022-10-16T11:00:28;11.85;;;7.50;;
73397;SDS011;63606;52.328;20.964;2022-10-16T11:03:08;12.65;;;8.02;;
73397;SDS011;63606;52.328;20.964;2022-10-16T11:08:20;14.07;;;8.18;;
73397;SDS011;63606;52.328;20.964;2022-10-16T11:11:05;13.27;;;8.00;;
73397;SDS011;63606;52.328;20.964;2022-10-16T11:16:18;11.82;;;7.90;;
73397;SDS011;63606;52.328;20.964;2022-10-16T11:21:50;11.98;;;7.63;;
73397;SDS011;63606;52.328;20.964;2022-10-16T11:24:44;13.43;;;7.95;;
73397;SDS011;63606;52.328;20.964;2022-10-16T11:27:38;13.82;;;8.40;;
73397;SDS011;63606;52.328;20.964;2022-10-16T11:30:28;12.20;;;7.20;;
73397;SDS011;63606;52.328;20.964;2022-10-16T11:33:02;14.35;;;8.05;;
73397;SDS011;63606;52.328;20.964;2022-10-16T11:35:36;15.77;;;7.88;;
73397;SDS011;63606;52.328;20.964;2022-10-16T11:38:14;12.38;;;8.00;;
73397;SDS011;63606;52.328;20.964;2022-10-16T11:40:51;14.70;;;8.20;;
73397;SDS011;63606;52.328;20.964;2022-10-16T11:43:32;13.48;;;7.78;;
73397;SDS011;63606;52.328;20.964;2022-10-16T11:46:36;12.57;;;7.63;;
73397;SDS011;63606;52.328;20.964;2022-10-16T11:49:00;13.90;;;7.22;;
73397;SDS011;63606;52.328;20.964;2022-10-16T11:51:36;15.32;;;7.45;;
73397;SDS011;63606;52.328;20.964;2022-10-16T11:56:39;10.60;;;7.53;;
73397;SDS011;63606;52.328;20.964;2022-10-16T12:07:11;14.70;;;7.00;;
73397;SDS011;63606;52.328;20.964;2022-10-16T12:09:41;13.60;;;7.32;;
73397;SDS011;63606;52.328;20.964;2022-10-16T12:12:26;10.38;;;6.93;;
73397;SDS011;63606;52.328;20.964;2022-10-16T12:17:44;11.27;;;7.00;;
73397;SDS011;63606;52.328;20.964;2022-10-16T12:22:41;9.88;;;6.88;;
73397;SDS011;63606;52.328;20.964;2022-10-16T12:25:21;10.07;;;7.25;;
73397;SDS011;63606;52.328;20.964;2022-10-16T12:27:53;14.32;;;6.93;;
73397;SDS011;63606;52.328;20.964;2022-10-16T12:30:39;13.25;;;7.53;;
73397;SDS011;63606;52.328;20.964;2022-10-16T12:33:17;13.20;;;6.40;;
73397;SDS011;63606;52.328;20.964;2022-10-16T12:35:47;11.77;;;6.13;;
73397;SDS011;63606;52.328;20.964;2022-10-16T12:40:54;11.32;;;7.20;;
73397;SDS011;63606;52.328;20.964;2022-10-16T12:48:34;11.38;;;6.45;;
73397;SDS011;63606;52.328;20.964;2022-10-16T12:51:11;14.38;;;7.50;;
73397;SDS011;63606;52.328;20.964;2022-10-16T12:54:02;13.15;;;6.30;;
73397;SDS011;63606;52.328;20.964;2022-10-16T12:56:51;12.50;;;7.00;;
73397;SDS011;63606;52.328;20.964;2022-10-16T13:16:37;12.48;;;7.10;;
73397;SDS011;63606;52.328;20.964;2022-10-16T13:22:24;12.40;;;6.68;;
73397;SDS011;63606;52.328;20.964;2022-10-16T13:30:28;12.55;;;6.90;;
73397;SDS011;63606;52.328;20.964;2022-10-16T13:33:07;10.90;;;6.75;;
73397;SDS011;63606;52.328;20.964;2022-10-16T13:35:46;13.00;;;7.05;;
73397;SDS011;63606;52.328;20.964;2022-10-16T13:38:17;11.07;;;7.07;;
73397;SDS011;63606;52.328;20.964;2022-10-16T13:40:48;12.70;;;7.20;;
73397;SDS011;63606;52.328;20.964;2022-10-16T13:43:20;12.05;;;7.20;;
73397;SDS011;63606;52.328;20.964;2022-10-16T13:45:59;14.40;;;7.75;;
73397;SDS011;63606;52.328;20.964;2022-10-16T13:48:32;12.32;;;7.30;;
73397;SDS011;63606;52.328;20.964;2022-10-16T13:50:59;11.80;;;7.45;;
73397;SDS011;63606;52.328;20.964;2022-10-16T13:53:31;13.35;;;6.93;;
73397;SDS011;63606;52.328;20.964;2022-10-16T13:55:58;13.15;;;7.55;;
73397;SDS011;63606;52.328;20.964;2022-10-16T13:58:25;12.30;;;7.70;;
73397;SDS011;63606;52.328;20.964;2022-10-16T14:01:34;11.35;;;7.18;;
73397;SDS011;63606;52.328;20.964;2022-10-16T14:03:42;13.80;;;7.68;;
73397;SDS011;63606;52.328;20.964;2022-10-16T14:06:12;11.15;;;7.22;;
73397;SDS011;63606;52.328;20.964;2022-10-16T14:08:52;12.23;;;7.20;;
73397;SDS011;63606;52.328;20.964;2022-10-16T14:11:22;17.35;;;7.70;;
73397;SDS011;63606;52.328;20.964;2022-10-16T14:13:49;12.90;;;7.30;;
73397;SDS011;63606;52.328;20.964;2022-10-16T14:16:16;12.15;;;6.97;;
73397;SDS011;63606;52.328;20.964;2022-10-16T14:21:45;13.15;;;7.05;;
73397;SDS011;63606;52.328;20.964;2022-10-16T14:24:12;12.95;;;6.80;;
73397;SDS011;63606;52.328;20.964;2022-10-16T14:26:43;10.63;;;6.88;;
73397;SDS011;63606;52.328;20.964;2022-10-16T14:29:13;10.68;;;7.07;;
73397;SDS011;63606;52.328;20.964;2022-10-16T14:31:42;11.68;;;6.95;;
73397;SDS011;63606;52.328;20.964;2022-10-16T14:34:27;10.82;;;6.00;;
73397;SDS011;63606;52.328;20.964;2022-10-16T14:36:55;10.90;;;5.80;;
73397;SDS011;63606;52.328;20.964;2022-10-16T14:39:22;9.77;;;6.00;;
73397;SDS011;63606;52.328;20.964;2022-10-16T14:41:50;11.02;;;6.65;;
73397;SDS011;63606;52.328;20.964;2022-10-16T14:44:17;15.30;;;6.80;;
73397;SDS011;63606;52.328;20.964;2022-10-16T14:46:44;13.98;;;6.82;;
73397;SDS011;63606;52.328;20.964;2022-10-16T14:51:36;12.13;;;6.65;;
73397;SDS011;63606;52.328;20.964;2022-10-16T14:54:03;10.75;;;7.03;;
73397;SDS011;63606;52.328;20.964;2022-10-16T14:56:31;10.77;;;6.80;;
73397;SDS011;63606;52.328;20.964;2022-10-16T14:59:07;10.75;;;6.60;;
73397;SDS011;63606;52.328;20.964;2022-10-16T15:01:48;12.10;;;6.72;;
73397;SDS011;63606;52.328;20.964;2022-10-16T15:04:13;12.63;;;7.00;;
73397;SDS011;63606;52.328;20.964;2022-10-16T15:06:40;13.07;;;6.80;;
73397;SDS011;63606;52.328;20.964;2022-10-16T15:09:06;11.65;;;6.97;;
73397;SDS011;63606;52.328;20.964;2022-10-16T15:11:32;15.00;;;6.80;;
73397;SDS011;63606;52.328;20.964;2022-10-16T15:13:58;10.25;;;6.43;;
73397;SDS011;63606;52.328;20.964;2022-10-16T15:16:24;10.07;;;6.90;;
73397;SDS011;63606;52.328;20.964;2022-10-16T15:18:49;11.10;;;7.15;;
73397;SDS011;63606;52.328;20.964;2022-10-16T15:21:29;12.63;;;7.03;;
73397;SDS011;63606;52.328;20.964;2022-10-16T15:23:56;14.15;;;8.00;;
73397;SDS011;63606;52.328;20.964;2022-10-16T15:26:24;12.88;;;6.97;;
73397;SDS011;63606;52.328;20.964;2022-10-16T15:28:50;12.50;;;7.10;;
73397;SDS011;63606;52.328;20.964;2022-10-16T15:31:16;10.25;;;6.63;;
73397;SDS011;63606;52.328;20.964;2022-10-16T15:33:41;9.85;;;6.30;;
73397;SDS011;63606;52.328;20.964;2022-10-16T15:36:07;13.95;;;8.00;;
73397;SDS011;63606;52.328;20.964;2022-10-16T15:38:32;14.48;;;7.43;;
73397;SDS011;63606;52.328;20.964;2022-10-16T15:40:58;14.40;;;7.10;;
73397;SDS011;63606;52.328;20.964;2022-10-16T15:43:24;14.02;;;7.57;;
73397;SDS011;63606;52.328;20.964;2022-10-16T15:46:06;14.63;;;7.75;;
73397;SDS011;63606;52.328;20.964;2022-10-16T15:48:36;12.27;;;7.45;;
73397;SDS011;63606;52.328;20.964;2022-10-16T15:51:04;13.35;;;7.18;;
73397;SDS011;63606;52.328;20.964;2022-10-16T15:53:31;12.43;;;7.43;;
73397;SDS011;63606;52.328;20.964;2022-10-16T15:56:00;13.80;;;8.13;;
73397;SDS011;63606;52.328;20.964;2022-10-16T15:58:27;12.63;;;8.15;;
73397;SDS011;63606;52.328;20.964;2022-10-16T16:00:57;12.57;;;7.75;;
73397;SDS011;63606;52.328;20.964;2022-10-16T16:03:26;13.52;;;8.40;;
73397;SDS011;63606;52.328;20.964;2022-10-16T16:05:52;15.77;;;8.35;;
73397;SDS011;63606;52.328;20.964;2022-10-16T16:08:18;12.80;;;7.88;;
73397;SDS011;63606;52.328;20.964;2022-10-16T16:10:43;11.75;;;7.63;;
73397;SDS011;63606;52.328;20.964;2022-10-16T16:13:09;14.75;;;7.45;;
73397;SDS011;63606;52.328;20.964;2022-10-16T16:15:37;14.23;;;7.65;;
73397;SDS011;63606;52.328;20.964;2022-10-16T16:18:04;14.63;;;8.15;;
73397;SDS011;63606;52.328;20.964;2022-10-16T16:20:30;13.48;;;8.00;;
73397;SDS011;63606;52.328;20.964;2022-10-16T16:22:56;13.52;;;8.32;;
73397;SDS011;63606;52.328;20.964;2022-10-16T16:25:22;15.15;;;8.20;;
73397;SDS011;63606;52.328;20.964;2022-10-16T16:27:47;16.15;;;8.68;;
73397;SDS011;63606;52.328;20.964;2022-10-16T16:30:13;15.73;;;8.73;;
73397;SDS011;63606;52.328;20.964;2022-10-16T16:32:38;13.27;;;8.18;;
73397;SDS011;63606;52.328;20.964;2022-10-16T16:35:04;15.98;;;8.23;;
73397;SDS011;63606;52.328;20.964;2022-10-16T16:37:30;14.23;;;7.80;;
73397;SDS011;63606;52.328;20.964;2022-10-16T16:39:56;16.33;;;8.77;;